sensor_id;sensor_type;location;lat;lon;timestamp;pressure;altitude;pressure_sealevel;temperature;humidity
62458;BME280;48509;52.122;5.250;2022-08-01T00:00:22;101648.0;;;20.16;96.1
62458;BME280;48509;52.122;5.250;2022-08-01T00:02:09;101651.0;;;20.14;96.51
62458;BME280;48509;52.122;5.250;2022-08-01T00:03:56;101655.0;;;20.21;95.64
62458;BME280;48509;52.122;5.250;2022-08-01T00:05:45;101651.0;;;20.28;94.44
62458;BME280;48509;52.122;5.250;2022-08-01T00:09:17;101655.0;;;20.22;96.09
62458;BME280;48509;52.122;5.250;2022-08-01T00:11:04;101647.0;;;20.23;96.23
62458;BME280;48509;52.122;5.250;2022-08-01T00:12:51;101652.0;;;20.27;96.35
62458;BME280;48509;52.122;5.250;2022-08-01T00:14:37;101649.0;;;20.16;96.73
62458;BME280;48509;52.122;5.250;2022-08-01T00:16:24;101651.0;;;20.18;96.62
62458;BME280;48509;52.122;5.250;2022-08-01T00:19:57;101649.0;;;20.16;97.06
62458;BME280;48509;52.122;5.250;2022-08-01T00:21:44;101649.0;;;20.2;96.92
62458;BME280;48509;52.122;5.250;2022-08-01T00:23:31;101652.0;;;20.22;96.81
62458;BME280;48509;52.122;5.250;2022-08-01T00:25:18;101651.0;;;20.3;96.14
62458;BME280;48509;52.122;5.250;2022-08-01T00:27:04;101647.0;;;20.29;96.66
62458;BME280;48509;52.122;5.250;2022-08-01T00:28:51;101656.0;;;20.28;96.11
62458;BME280;48509;52.122;5.250;2022-08-01T00:32:23;101655.0;;;20.31;95.91
62458;BME280;48509;52.122;5.250;2022-08-01T00:34:10;101651.0;;;20.39;94.99
62458;BME280;48509;52.122;5.250;2022-08-01T00:35:57;101652.0;;;20.27;96.2
62458;BME280;48509;52.122;5.250;2022-08-01T00:37:44;101649.0;;;20.32;95.63
62458;BME280;48509;52.122;5.250;2022-08-01T00:39:33;101650.0;;;20.39;95.34
62458;BME280;48509;52.122;5.250;2022-08-01T00:41:19;101649.0;;;20.39;95.51
62458;BME280;48509;52.122;5.250;2022-08-01T00:44:51;101651.0;;;20.47;95.16
62458;BME280;48509;52.122;5.250;2022-08-01T00:46:37;101647.0;;;20.37;94.96
62458;BME280;48509;52.122;5.250;2022-08-01T00:48:23;101647.0;;;20.36;95.7
62458;BME280;48509;52.122;5.250;2022-08-01T00:50:10;101648.0;;;20.31;95.31
62458;BME280;48509;52.122;5.250;2022-08-01T00:51:58;101651.0;;;20.25;96.0
62458;BME280;48509;52.122;5.250;2022-08-01T00:55:31;101656.0;;;20.27;95.8
62458;BME280;48509;52.122;5.250;2022-08-01T00:57:18;101655.0;;;20.36;95.29
62458;BME280;48509;52.122;5.250;2022-08-01T00:59:06;101656.0;;;20.39;95.41
62458;BME280;48509;52.122;5.250;2022-08-01T01:00:53;101661.0;;;20.45;94.83
62458;BME280;48509;52.122;5.250;2022-08-01T01:02:39;101661.0;;;20.36;95.64
62458;BME280;48509;52.122;5.250;2022-08-01T01:04:26;101666.0;;;20.45;94.92
62458;BME280;48509;52.122;5.250;2022-08-01T01:08:16;101662.0;;;20.47;95.28
62458;BME280;48509;52.122;5.250;2022-08-01T01:10:12;101661.0;;;20.31;95.37
62458;BME280;48509;52.122;5.250;2022-08-01T01:12:10;101657.0;;;20.25;96.13
62458;BME280;48509;52.122;5.250;2022-08-01T01:14:02;101655.0;;;20.25;96.15
62458;BME280;48509;52.122;5.250;2022-08-01T01:15:57;101657.0;;;20.27;96.7
62458;BME280;48509;52.122;5.250;2022-08-01T01:17:48;101655.0;;;20.34;96.08
62458;BME280;48509;52.122;5.250;2022-08-01T01:19:45;101658.0;;;20.28;96.41
62458;BME280;48509;52.122;5.250;2022-08-01T01:21:43;101657.0;;;20.25;97.15
62458;BME280;48509;52.122;5.250;2022-08-01T01:23:40;101655.0;;;20.25;96.74
62458;BME280;48509;52.122;5.250;2022-08-01T01:25:44;101653.0;;;20.25;96.5
62458;BME280;48509;52.122;5.250;2022-08-01T01:27:45;101650.0;;;20.22;97.13
62458;BME280;48509;52.122;5.250;2022-08-01T01:29:40;101653.0;;;20.2;97.7
62458;BME280;48509;52.122;5.250;2022-08-01T01:31:29;101646.0;;;20.39;96.47
62458;BME280;48509;52.122;5.250;2022-08-01T01:35:14;101647.0;;;20.43;95.42
62458;BME280;48509;52.122;5.250;2022-08-01T01:37:11;101646.0;;;20.32;96.74
62458;BME280;48509;52.122;5.250;2022-08-01T01:39:05;101647.0;;;20.3;96.6
62458;BME280;48509;52.122;5.250;2022-08-01T01:40:53;101650.0;;;20.39;96.03
62458;BME280;48509;52.122;5.250;2022-08-01T01:42:42;101651.0;;;20.41;96.07
62458;BME280;48509;52.122;5.250;2022-08-01T01:44:30;101649.0;;;20.37;95.85
62458;BME280;48509;52.122;5.250;2022-08-01T01:46:22;101645.0;;;20.31;96.09
62458;BME280;48509;52.122;5.250;2022-08-01T01:50:02;101651.0;;;20.37;96.2
62458;BME280;48509;52.122;5.250;2022-08-01T01:51:51;101657.0;;;20.41;95.77
62458;BME280;48509;52.122;5.250;2022-08-01T01:53:40;101657.0;;;20.36;96.43
62458;BME280;48509;52.122;5.250;2022-08-01T01:55:28;101656.0;;;20.31;96.59
62458;BME280;48509;52.122;5.250;2022-08-01T01:57:17;101655.0;;;20.25;97.14
62458;BME280;48509;52.122;5.250;2022-08-01T01:59:04;101658.0;;;20.38;96.55
62458;BME280;48509;52.122;5.250;2022-08-01T02:00:52;101660.0;;;20.36;96.05
62458;BME280;48509;52.122;5.250;2022-08-01T02:04:30;101661.0;;;20.28;97.47
62458;BME280;48509;52.122;5.250;2022-08-01T02:06:18;101660.0;;;20.25;97.54
62458;BME280;48509;52.122;5.250;2022-08-01T02:08:05;101658.0;;;20.46;96.06
62458;BME280;48509;52.122;5.250;2022-08-01T02:09:54;101653.0;;;20.36;96.92
62458;BME280;48509;52.122;5.250;2022-08-01T02:11:41;101659.0;;;20.34;96.92
62458;BME280;48509;52.122;5.250;2022-08-01T02:13:30;101658.0;;;20.27;97.19
62458;BME280;48509;52.122;5.250;2022-08-01T02:17:06;101657.0;;;20.29;97.28
62458;BME280;48509;52.122;5.250;2022-08-01T02:18:57;101658.0;;;20.36;96.96
62458;BME280;48509;52.122;5.250;2022-08-01T02:20:45;101656.0;;;20.34;96.47
62458;BME280;48509;52.122;5.250;2022-08-01T02:22:35;101661.0;;;20.3;96.8
62458;BME280;48509;52.122;5.250;2022-08-01T02:24:34;101658.0;;;20.37;96.27
62458;BME280;48509;52.122;5.250;2022-08-01T02:26:24;101663.0;;;20.45;95.78
62458;BME280;48509;52.122;5.250;2022-08-01T02:28:15;101664.0;;;20.34;96.73
62458;BME280;48509;52.122;5.250;2022-08-01T02:30:07;101663.0;;;20.45;96.14
62458;BME280;48509;52.122;5.250;2022-08-01T02:33:46;101655.0;;;20.36;96.28
62458;BME280;48509;52.122;5.250;2022-08-01T02:35:37;101659.0;;;20.32;96.1
62458;BME280;48509;52.122;5.250;2022-08-01T02:37:29;101659.0;;;20.2;97.3
62458;BME280;48509;52.122;5.250;2022-08-01T02:39:20;101667.0;;;20.27;97.01
62458;BME280;48509;52.122;5.250;2022-08-01T02:41:11;101666.0;;;20.25;96.73
62458;BME280;48509;52.122;5.250;2022-08-01T02:43:00;101665.0;;;20.25;96.49
62458;BME280;48509;52.122;5.250;2022-08-01T02:44:49;101670.0;;;20.3;96.5
62458;BME280;48509;52.122;5.250;2022-08-01T02:48:30;101670.0;;;20.21;97.28
62458;BME280;48509;52.122;5.250;2022-08-01T02:50:20;101670.0;;;20.13;97.95
62458;BME280;48509;52.122;5.250;2022-08-01T02:52:14;101664.0;;;20.27;96.88
62458;BME280;48509;52.122;5.250;2022-08-01T02:54:03;101659.0;;;20.27;96.82
62458;BME280;48509;52.122;5.250;2022-08-01T02:55:52;101661.0;;;20.28;96.33
62458;BME280;48509;52.122;5.250;2022-08-01T02:57:40;101661.0;;;20.18;97.04
62458;BME280;48509;52.122;5.250;2022-08-01T02:59:30;101664.0;;;20.12;97.33
62458;BME280;48509;52.122;5.250;2022-08-01T03:03:10;101658.0;;;20.13;97.62
62458;BME280;48509;52.122;5.250;2022-08-01T03:04:58;101656.0;;;20.16;97.17
62458;BME280;48509;52.122;5.250;2022-08-01T03:06:46;101650.0;;;20.12;97.14
62458;BME280;48509;52.122;5.250;2022-08-01T03:08:34;101640.0;;;20.06;97.73
62458;BME280;48509;52.122;5.250;2022-08-01T03:10:24;101648.0;;;20.2;96.97
62458;BME280;48509;52.122;5.250;2022-08-01T03:12:15;101651.0;;;20.06;98.2
62458;BME280;48509;52.122;5.250;2022-08-01T03:14:12;101657.0;;;20.05;97.93
62458;BME280;48509;52.122;5.250;2022-08-01T03:17:52;101656.0;;;20.06;98.2
62458;BME280;48509;52.122;5.250;2022-08-01T03:19:41;101660.0;;;20.09;97.91
62458;BME280;48509;52.122;5.250;2022-08-01T03:21:31;101664.0;;;20.11;97.7
62458;BME280;48509;52.122;5.250;2022-08-01T03:23:21;101665.0;;;20.09;98.07
62458;BME280;48509;52.122;5.250;2022-08-01T03:25:09;101663.0;;;20.06;98.03
62458;BME280;48509;52.122;5.250;2022-08-01T03:26:57;101666.0;;;20.14;98.04
62458;BME280;48509;52.122;5.250;2022-08-01T03:28:46;101666.0;;;20.09;98.05
62458;BME280;48509;52.122;5.250;2022-08-01T03:32:23;101665.0;;;20.18;97.68
62458;BME280;48509;52.122;5.250;2022-08-01T03:34:11;101669.0;;;20.09;98.04
62458;BME280;48509;52.122;5.250;2022-08-01T03:36:00;101669.0;;;20.18;97.23
62458;BME280;48509;52.122;5.250;2022-08-01T03:37:50;101668.0;;;20.11;97.74
62458;BME280;48509;52.122;5.250;2022-08-01T03:39:44;101673.0;;;20.06;97.87
62458;BME280;48509;52.122;5.250;2022-08-01T03:41:37;101673.0;;;20.05;98.18
62458;BME280;48509;52.122;5.250;2022-08-01T03:43:30;101677.0;;;20.03;98.25
62458;BME280;48509;52.122;5.250;2022-08-01T03:45:26;101673.0;;;20.04;98.14
62458;BME280;48509;52.122;5.250;2022-08-01T03:49:14;101673.0;;;19.97;98.97
62458;BME280;48509;52.122;5.250;2022-08-01T03:51:08;101674.0;;;19.97;98.43
62458;BME280;48509;52.122;5.250;2022-08-01T03:52:57;101673.0;;;20.03;97.74
62458;BME280;48509;52.122;5.250;2022-08-01T03:54:49;101670.0;;;19.98;98.43
62458;BME280;48509;52.122;5.250;2022-08-01T03:56:39;101672.0;;;20.05;97.39
62458;BME280;48509;52.122;5.250;2022-08-01T03:58:28;101677.0;;;20.12;96.63
62458;BME280;48509;52.122;5.250;2022-08-01T04:00:18;101676.0;;;20.11;96.56
62458;BME280;48509;52.122;5.250;2022-08-01T04:02:06;101671.0;;;19.98;96.37
62458;BME280;48509;52.122;5.250;2022-08-01T04:05:40;101676.0;;;19.93;97.4
62458;BME280;48509;52.122;5.250;2022-08-01T04:07:29;101676.0;;;19.93;97.52
62458;BME280;48509;52.122;5.250;2022-08-01T04:09:16;101674.0;;;19.93;97.7
62458;BME280;48509;52.122;5.250;2022-08-01T04:11:04;101675.0;;;19.95;97.95
62458;BME280;48509;52.122;5.250;2022-08-01T04:12:51;101671.0;;;19.97;97.44
62458;BME280;48509;52.122;5.250;2022-08-01T04:14:38;101675.0;;;19.84;97.59
62458;BME280;48509;52.122;5.250;2022-08-01T04:18:11;101675.0;;;19.88;97.45
62458;BME280;48509;52.122;5.250;2022-08-01T04:19:57;101682.0;;;19.84;97.62
62458;BME280;48509;52.122;5.250;2022-08-01T04:21:44;101687.0;;;19.86;97.88
62458;BME280;48509;52.122;5.250;2022-08-01T04:23:33;101686.0;;;19.91;97.84
62458;BME280;48509;52.122;5.250;2022-08-01T04:25:25;101693.0;;;19.93;97.83
62458;BME280;48509;52.122;5.250;2022-08-01T04:27:14;101690.0;;;19.79;98.15
62458;BME280;48509;52.122;5.250;2022-08-01T04:30:59;101691.0;;;19.84;98.35
62458;BME280;48509;52.122;5.250;2022-08-01T04:32:47;101691.0;;;20.02;97.6
62458;BME280;48509;52.122;5.250;2022-08-01T04:34:38;101694.0;;;20.0;96.81
62458;BME280;48509;52.122;5.250;2022-08-01T04:36:28;101695.0;;;19.96;97.56
62458;BME280;48509;52.122;5.250;2022-08-01T04:38:19;101696.0;;;20.11;96.95
62458;BME280;48509;52.122;5.250;2022-08-01T04:40:10;101696.0;;;20.13;96.2
62458;BME280;48509;52.122;5.250;2022-08-01T04:41:58;101696.0;;;20.06;96.15
62458;BME280;48509;52.122;5.250;2022-08-01T04:45:34;101700.0;;;20.05;96.8
62458;BME280;48509;52.122;5.250;2022-08-01T04:47:22;101702.0;;;19.98;97.1
62458;BME280;48509;52.122;5.250;2022-08-01T04:49:10;101699.0;;;19.98;97.29
62458;BME280;48509;52.122;5.250;2022-08-01T04:50:56;101699.0;;;20.0;97.55
62458;BME280;48509;52.122;5.250;2022-08-01T04:52:42;101705.0;;;20.06;97.45
62458;BME280;48509;52.122;5.250;2022-08-01T04:54:30;101712.0;;;20.05;96.79
62458;BME280;48509;52.122;5.250;2022-08-01T04:58:06;101715.0;;;20.16;96.47
62458;BME280;48509;52.122;5.250;2022-08-01T04:59:56;101719.0;;;20.04;96.39
62458;BME280;48509;52.122;5.250;2022-08-01T05:01:48;101720.0;;;20.12;96.31
62458;BME280;48509;52.122;5.250;2022-08-01T05:03:35;101719.0;;;20.16;96.38
62458;BME280;48509;52.122;5.250;2022-08-01T05:05:22;101718.0;;;20.18;95.95
62458;BME280;48509;52.122;5.250;2022-08-01T05:07:09;101715.0;;;20.36;95.28
62458;BME280;48509;52.122;5.250;2022-08-01T05:10:42;101722.0;;;20.3;94.89
62458;BME280;48509;52.122;5.250;2022-08-01T05:12:29;101725.0;;;20.34;94.83
62458;BME280;48509;52.122;5.250;2022-08-01T05:14:15;101724.0;;;20.22;93.34
62458;BME280;48509;52.122;5.250;2022-08-01T05:16:03;101725.0;;;20.16;94.09
62458;BME280;48509;52.122;5.250;2022-08-01T05:17:50;101728.0;;;20.09;94.69
62458;BME280;48509;52.122;5.250;2022-08-01T05:19:38;101721.0;;;20.27;92.79
62458;BME280;48509;52.122;5.250;2022-08-01T05:23:12;101722.0;;;20.25;92.23
62458;BME280;48509;52.122;5.250;2022-08-01T05:24:59;101730.0;;;19.93;93.34
62458;BME280;48509;52.122;5.250;2022-08-01T05:26:45;101736.0;;;20.02;93.45
62458;BME280;48509;52.122;5.250;2022-08-01T05:28:31;101733.0;;;20.05;93.63
62458;BME280;48509;52.122;5.250;2022-08-01T05:30:18;101734.0;;;20.03;93.59
62458;BME280;48509;52.122;5.250;2022-08-01T05:32:04;101736.0;;;20.0;93.11
62458;BME280;48509;52.122;5.250;2022-08-01T05:35:37;101735.0;;;19.95;93.16
62458;BME280;48509;52.122;5.250;2022-08-01T05:37:24;101735.0;;;20.07;92.54
62458;BME280;48509;52.122;5.250;2022-08-01T05:39:10;101739.0;;;19.91;93.69
62458;BME280;48509;52.122;5.250;2022-08-01T05:40:57;101746.0;;;19.84;95.03
62458;BME280;48509;52.122;5.250;2022-08-01T05:42:43;101749.0;;;19.86;95.43
62458;BME280;48509;52.122;5.250;2022-08-01T05:46:17;101744.0;;;19.77;96.31
62458;BME280;48509;52.122;5.250;2022-08-01T05:48:04;101745.0;;;19.78;96.11
62458;BME280;48509;52.122;5.250;2022-08-01T05:49:50;101738.0;;;19.77;96.71
62458;BME280;48509;52.122;5.250;2022-08-01T05:51:36;101744.0;;;19.87;95.61
62458;BME280;48509;52.122;5.250;2022-08-01T05:53:22;101745.0;;;19.82;96.63
62458;BME280;48509;52.122;5.250;2022-08-01T05:55:09;101751.0;;;19.77;96.6
62458;BME280;48509;52.122;5.250;2022-08-01T05:58:46;101753.0;;;19.73;97.32
62458;BME280;48509;52.122;5.250;2022-08-01T06:00:33;101756.0;;;19.78;96.74
62458;BME280;48509;52.122;5.250;2022-08-01T06:02:20;101755.0;;;19.77;96.5
62458;BME280;48509;52.122;5.250;2022-08-01T06:04:06;101759.0;;;19.71;96.6
62458;BME280;48509;52.122;5.250;2022-08-01T06:05:52;101766.0;;;19.59;97.35
62458;BME280;48509;52.122;5.250;2022-08-01T06:07:39;101766.0;;;19.57;97.45
62458;BME280;48509;52.122;5.250;2022-08-01T06:11:12;101765.0;;;19.54;98.41
62458;BME280;48509;52.122;5.250;2022-08-01T06:13:03;101767.0;;;19.59;98.66
62458;BME280;48509;52.122;5.250;2022-08-01T06:14:49;101765.0;;;19.53;98.94
62458;BME280;48509;52.122;5.250;2022-08-01T06:16:35;101770.0;;;19.7;98.38
62458;BME280;48509;52.122;5.250;2022-08-01T06:18:22;101772.0;;;19.63;98.54
62458;BME280;48509;52.122;5.250;2022-08-01T06:20:10;101774.0;;;19.73;98.38
62458;BME280;48509;52.122;5.250;2022-08-01T06:23:42;101774.0;;;19.7;98.6
62458;BME280;48509;52.122;5.250;2022-08-01T06:25:28;101767.0;;;19.79;97.6
62458;BME280;48509;52.122;5.250;2022-08-01T06:27:16;101763.0;;;19.68;98.74
62458;BME280;48509;52.122;5.250;2022-08-01T06:29:02;101770.0;;;19.64;98.85
62458;BME280;48509;52.122;5.250;2022-08-01T06:30:49;101767.0;;;19.66;98.85
62458;BME280;48509;52.122;5.250;2022-08-01T06:34:23;101767.0;;;19.61;99.04
62458;BME280;48509;52.122;5.250;2022-08-01T06:36:09;101770.0;;;19.61;99.42
62458;BME280;48509;52.122;5.250;2022-08-01T06:37:56;101771.0;;;19.62;99.73
62458;BME280;48509;52.122;5.250;2022-08-01T06:39:43;101770.0;;;19.61;98.44
62458;BME280;48509;52.122;5.250;2022-08-01T06:41:29;101771.0;;;19.62;98.34
62458;BME280;48509;52.122;5.250;2022-08-01T06:43:15;101772.0;;;19.64;98.39
62458;BME280;48509;52.122;5.250;2022-08-01T06:46:49;101774.0;;;19.63;99.09
62458;BME280;48509;52.122;5.250;2022-08-01T06:48:39;101775.0;;;19.68;99.13
62458;BME280;48509;52.122;5.250;2022-08-01T06:50:25;101776.0;;;19.7;99.1
62458;BME280;48509;52.122;5.250;2022-08-01T06:52:12;101781.0;;;19.68;99.06
62458;BME280;48509;52.122;5.250;2022-08-01T06:53:58;101783.0;;;19.7;99.51
62458;BME280;48509;52.122;5.250;2022-08-01T06:55:44;101780.0;;;19.86;98.72
62458;BME280;48509;52.122;5.250;2022-08-01T06:59:17;101787.0;;;19.75;97.79
62458;BME280;48509;52.122;5.250;2022-08-01T07:01:06;101783.0;;;19.75;98.37
62458;BME280;48509;52.122;5.250;2022-08-01T07:02:54;101789.0;;;19.7;98.92
62458;BME280;48509;52.122;5.250;2022-08-01T07:04:42;101789.0;;;19.73;99.45
62458;BME280;48509;52.122;5.250;2022-08-01T07:06:29;101785.0;;;19.8;98.69
62458;BME280;48509;52.122;5.250;2022-08-01T07:08:15;101788.0;;;19.89;98.03
62458;BME280;48509;52.122;5.250;2022-08-01T07:11:52;101789.0;;;19.86;97.67
62458;BME280;48509;52.122;5.250;2022-08-01T07:13:40;101793.0;;;19.97;96.95
62458;BME280;48509;52.122;5.250;2022-08-01T07:15:27;101785.0;;;20.04;96.88
62458;BME280;48509;52.122;5.250;2022-08-01T07:17:13;101787.0;;;19.98;96.8
62458;BME280;48509;52.122;5.250;2022-08-01T07:19:00;101791.0;;;19.89;96.7
62458;BME280;48509;52.122;5.250;2022-08-01T07:22:32;101795.0;;;19.86;96.8
62458;BME280;48509;52.122;5.250;2022-08-01T07:24:19;101806.0;;;19.84;95.89
62458;BME280;48509;52.122;5.250;2022-08-01T07:26:06;101809.0;;;19.81;95.79
62458;BME280;48509;52.122;5.250;2022-08-01T07:27:53;101809.0;;;19.88;95.7
62458;BME280;48509;52.122;5.250;2022-08-01T07:29:39;101806.0;;;19.86;96.22
62458;BME280;48509;52.122;5.250;2022-08-01T07:31:25;101810.0;;;19.86;94.74
62458;BME280;48509;52.122;5.250;2022-08-01T07:34:58;101815.0;;;19.75;96.92
62458;BME280;48509;52.122;5.250;2022-08-01T07:36:45;101813.0;;;19.73;96.48
62458;BME280;48509;52.122;5.250;2022-08-01T07:38:32;101815.0;;;19.7;96.62
62458;BME280;48509;52.122;5.250;2022-08-01T07:40:19;101821.0;;;19.79;97.04
62458;BME280;48509;52.122;5.250;2022-08-01T07:42:06;101821.0;;;19.78;96.77
62458;BME280;48509;52.122;5.250;2022-08-01T07:43:53;101824.0;;;19.7;96.27
62458;BME280;48509;52.122;5.250;2022-08-01T07:47:27;101827.0;;;19.75;94.04
62458;BME280;48509;52.122;5.250;2022-08-01T07:49:13;101827.0;;;19.75;96.33
62458;BME280;48509;52.122;5.250;2022-08-01T07:51:00;101828.0;;;19.75;94.42
62458;BME280;48509;52.122;5.250;2022-08-01T07:52:46;101831.0;;;19.81;92.64
62458;BME280;48509;52.122;5.250;2022-08-01T07:54:33;101831.0;;;19.82;94.53
62458;BME280;48509;52.122;5.250;2022-08-01T07:58:06;101830.0;;;19.95;94.05
62458;BME280;48509;52.122;5.250;2022-08-01T07:59:53;101830.0;;;19.87;95.34
62458;BME280;48509;52.122;5.250;2022-08-01T08:01:41;101839.0;;;20.0;95.33
62458;BME280;48509;52.122;5.250;2022-08-01T08:03:27;101836.0;;;19.98;93.4
62458;BME280;48509;52.122;5.250;2022-08-01T08:05:14;101840.0;;;19.95;94.77
62458;BME280;48509;52.122;5.250;2022-08-01T08:07:01;101842.0;;;20.06;95.43
62458;BME280;48509;52.122;5.250;2022-08-01T08:10:34;101837.0;;;20.16;93.95
62458;BME280;48509;52.122;5.250;2022-08-01T08:12:20;101837.0;;;20.21;93.99
62458;BME280;48509;52.122;5.250;2022-08-01T08:14:07;101838.0;;;20.16;95.0
62458;BME280;48509;52.122;5.250;2022-08-01T08:15:54;101840.0;;;20.22;93.08
62458;BME280;48509;52.122;5.250;2022-08-01T08:17:40;101843.0;;;20.25;93.51
62458;BME280;48509;52.122;5.250;2022-08-01T08:19:26;101846.0;;;20.25;93.25
62458;BME280;48509;52.122;5.250;2022-08-01T08:22:58;101846.0;;;20.34;94.14
62458;BME280;48509;52.122;5.250;2022-08-01T08:24:45;101849.0;;;20.32;94.7
62458;BME280;48509;52.122;5.250;2022-08-01T08:26:32;101852.0;;;20.36;93.62
62458;BME280;48509;52.122;5.250;2022-08-01T08:28:19;101853.0;;;20.38;91.31
62458;BME280;48509;52.122;5.250;2022-08-01T08:30:08;101850.0;;;20.37;92.57
62458;BME280;48509;52.122;5.250;2022-08-01T08:33:42;101851.0;;;20.36;92.81
62458;BME280;48509;52.122;5.250;2022-08-01T08:35:28;101851.0;;;20.46;93.04
62458;BME280;48509;52.122;5.250;2022-08-01T08:37:17;101849.0;;;20.41;93.54
62458;BME280;48509;52.122;5.250;2022-08-01T08:39:04;101855.0;;;20.39;93.41
62458;BME280;48509;52.122;5.250;2022-08-01T08:40:52;101857.0;;;20.46;92.56
62458;BME280;48509;52.122;5.250;2022-08-01T08:42:40;101856.0;;;20.45;89.21
62458;BME280;48509;52.122;5.250;2022-08-01T08:46:13;101864.0;;;20.45;91.29
62458;BME280;48509;52.122;5.250;2022-08-01T08:48:01;101865.0;;;20.37;87.63
62458;BME280;48509;52.122;5.250;2022-08-01T08:49:49;101870.0;;;20.38;84.59
62458;BME280;48509;52.122;5.250;2022-08-01T08:51:38;101870.0;;;20.49;88.11
62458;BME280;48509;52.122;5.250;2022-08-01T08:53:26;101869.0;;;20.57;89.49
62458;BME280;48509;52.122;5.250;2022-08-01T08:55:16;101869.0;;;20.67;86.25
62458;BME280;48509;52.122;5.250;2022-08-01T08:57:04;101870.0;;;20.65;91.24
62458;BME280;48509;52.122;5.250;2022-08-01T09:00:38;101873.0;;;20.57;86.83
62458;BME280;48509;52.122;5.250;2022-08-01T09:02:25;101875.0;;;20.64;89.32
62458;BME280;48509;52.122;5.250;2022-08-01T09:04:12;101872.0;;;20.6;86.93
62458;BME280;48509;52.122;5.250;2022-08-01T09:05:59;101870.0;;;20.53;82.3
62458;BME280;48509;52.122;5.250;2022-08-01T09:07:46;101876.0;;;20.55;82.41
62458;BME280;48509;52.122;5.250;2022-08-01T09:11:19;101871.0;;;20.63;84.24
62458;BME280;48509;52.122;5.250;2022-08-01T09:13:09;101880.0;;;20.66;84.29
62458;BME280;48509;52.122;5.250;2022-08-01T09:14:57;101883.0;;;20.75;89.88
62458;BME280;48509;52.122;5.250;2022-08-01T09:16:44;101881.0;;;20.85;89.37
62458;BME280;48509;52.122;5.250;2022-08-01T09:18:33;101883.0;;;20.81;84.21
62458;BME280;48509;52.122;5.250;2022-08-01T09:20:23;101888.0;;;20.9;86.83
62458;BME280;48509;52.122;5.250;2022-08-01T09:22:12;101888.0;;;21.06;84.96
62458;BME280;48509;52.122;5.250;2022-08-01T09:25:51;101888.0;;;21.0;85.61
62458;BME280;48509;52.122;5.250;2022-08-01T09:27:39;101892.0;;;21.11;85.26
62458;BME280;48509;52.122;5.250;2022-08-01T09:29:28;101887.0;;;21.06;80.36
62458;BME280;48509;52.122;5.250;2022-08-01T09:31:18;101896.0;;;20.8;87.21
62458;BME280;48509;52.122;5.250;2022-08-01T09:33:05;101893.0;;;20.91;76.44
62458;BME280;48509;52.122;5.250;2022-08-01T09:34:51;101897.0;;;20.89;84.69
62458;BME280;48509;52.122;5.250;2022-08-01T09:38:42;101895.0;;;20.96;84.82
62458;BME280;48509;52.122;5.250;2022-08-01T09:40:44;101895.0;;;20.84;86.31
62458;BME280;48509;52.122;5.250;2022-08-01T09:42:30;101901.0;;;21.06;87.37
62458;BME280;48509;52.122;5.250;2022-08-01T09:44:18;101902.0;;;21.17;85.88
62458;BME280;48509;52.122;5.250;2022-08-01T09:46:05;101905.0;;;21.15;76.62
62458;BME280;48509;52.122;5.250;2022-08-01T09:47:55;101900.0;;;21.25;83.28
62458;BME280;48509;52.122;5.250;2022-08-01T09:49:43;101908.0;;;21.15;83.18
62458;BME280;48509;52.122;5.250;2022-08-01T09:51:32;101905.0;;;21.29;82.32
62458;BME280;48509;52.122;5.250;2022-08-01T09:55:09;101905.0;;;21.34;86.86
62458;BME280;48509;52.122;5.250;2022-08-01T09:57:08;101905.0;;;21.42;83.59
62458;BME280;48509;52.122;5.250;2022-08-01T09:58:56;101913.0;;;21.41;82.5
62458;BME280;48509;52.122;5.250;2022-08-01T10:00:57;101913.0;;;21.53;75.12
62458;BME280;48509;52.122;5.250;2022-08-01T10:02:44;101909.0;;;21.47;77.16
62458;BME280;48509;52.122;5.250;2022-08-01T10:04:33;101910.0;;;21.38;80.37
62458;BME280;48509;52.122;5.250;2022-08-01T10:06:19;101906.0;;;21.36;73.55
62458;BME280;48509;52.122;5.250;2022-08-01T10:09:53;101907.0;;;21.47;80.87
62458;BME280;48509;52.122;5.250;2022-08-01T10:11:41;101909.0;;;21.52;78.45
62458;BME280;48509;52.122;5.250;2022-08-01T10:13:30;101910.0;;;21.4;83.13
62458;BME280;48509;52.122;5.250;2022-08-01T10:15:17;101911.0;;;21.5;80.06
62458;BME280;48509;52.122;5.250;2022-08-01T10:17:07;101911.0;;;21.7;79.61
62458;BME280;48509;52.122;5.250;2022-08-01T10:18:54;101915.0;;;21.84;73.47
62458;BME280;48509;52.122;5.250;2022-08-01T10:20:43;101918.0;;;21.85;75.06
62458;BME280;48509;52.122;5.250;2022-08-01T10:24:18;101917.0;;;21.88;76.3
62458;BME280;48509;52.122;5.250;2022-08-01T10:27:56;101919.0;;;21.93;68.91
62458;BME280;48509;52.122;5.250;2022-08-01T10:29:48;101920.0;;;21.96;67.48
62458;BME280;48509;52.122;5.250;2022-08-01T10:31:40;101916.0;;;21.93;70.66
62458;BME280;48509;52.122;5.250;2022-08-01T10:33:26;101919.0;;;22.05;75.45
62458;BME280;48509;52.122;5.250;2022-08-01T10:37:05;101914.0;;;21.97;72.73
62458;BME280;48509;52.122;5.250;2022-08-01T10:38:54;101914.0;;;21.93;76.09
62458;BME280;48509;52.122;5.250;2022-08-01T10:40:41;101912.0;;;22.02;75.66
62458;BME280;48509;52.122;5.250;2022-08-01T10:42:29;101916.0;;;22.2;72.22
62458;BME280;48509;52.122;5.250;2022-08-01T10:44:15;101915.0;;;22.14;66.19
62458;BME280;48509;52.122;5.250;2022-08-01T10:46:03;101919.0;;;22.33;71.55
62458;BME280;48509;52.122;5.250;2022-08-01T10:49:50;101915.0;;;22.39;68.7
62458;BME280;48509;52.122;5.250;2022-08-01T10:51:40;101916.0;;;22.37;72.16
62458;BME280;48509;52.122;5.250;2022-08-01T10:53:27;101919.0;;;22.41;76.17
62458;BME280;48509;52.122;5.250;2022-08-01T10:55:14;101918.0;;;22.55;71.5
62458;BME280;48509;52.122;5.250;2022-08-01T10:57:00;101919.0;;;22.6;70.3
62458;BME280;48509;52.122;5.250;2022-08-01T10:58:47;101919.0;;;22.69;68.0
62458;BME280;48509;52.122;5.250;2022-08-01T11:00:34;101921.0;;;22.55;74.41
62458;BME280;48509;52.122;5.250;2022-08-01T11:04:14;101925.0;;;22.59;69.75
62458;BME280;48509;52.122;5.250;2022-08-01T11:06:03;101923.0;;;22.55;67.08
62458;BME280;48509;52.122;5.250;2022-08-01T11:07:52;101922.0;;;22.62;62.58